createdAt,value
2022-08-27T00:00:10.572Z,950.78
2022-08-27T00:01:11.979Z,950.76
2022-08-27T00:02:10.718Z,950.73
2022-08-27T00:03:10.555Z,950.73
2022-08-27T00:04:10.613Z,950.73
2022-08-27T00:05:10.546Z,950.74
2022-08-27T00:06:10.543Z,950.72
2022-08-27T00:07:10.538Z,950.75
2022-08-27T00:08:10.680Z,950.71
2022-08-27T00:09:10.529Z,950.72
2022-08-27T00:10:10.526Z,950.66
2022-08-27T00:11:10.517Z,950.67
2022-08-27T00:12:10.515Z,950.65
2022-08-27T00:13:10.508Z,950.69
2022-08-27T00:14:10.505Z,950.69
2022-08-27T00:15:11.009Z,950.69
2022-08-27T00:16:10.544Z,950.7
2022-08-27T00:17:10.489Z,950.75
2022-08-27T00:18:10.579Z,950.77
2022-08-27T00:19:10.481Z,950.77
2022-08-27T00:20:10.474Z,950.82
2022-08-27T00:21:10.471Z,950.83
2022-08-27T00:22:10.464Z,950.86
2022-08-27T00:23:10.463Z,950.89
2022-08-27T00:24:10.455Z,950.92
2022-08-27T00:25:10.452Z,950.94
2022-08-27T00:26:10.446Z,950.9
2022-08-27T00:27:10.442Z,950.9
2022-08-27T00:28:10.567Z,950.96
2022-08-27T00:29:10.434Z,950.89
2022-08-27T00:30:10.425Z,950.91
2022-08-27T00:31:11.347Z,950.94
2022-08-27T00:32:10.499Z,950.95
2022-08-27T00:35:29.294Z,950.99
2022-08-27T00:36:29.297Z,950.99
2022-08-27T00:37:29.252Z,951.04
2022-08-27T00:38:29.249Z,951.02
2022-08-27T00:39:29.242Z,951.02
2022-08-27T00:40:29.323Z,951.04
2022-08-27T00:41:29.235Z,951.07
2022-08-27T00:42:29.510Z,951.06
2022-08-27T00:43:29.222Z,951.09
2022-08-27T00:44:29.216Z,951.09
2022-08-27T00:45:29.266Z,951.09
2022-08-27T00:46:29.209Z,951.08
2022-08-27T00:47:29.200Z,951.05
2022-08-27T00:48:29.196Z,951.1
2022-08-27T00:49:29.191Z,951.08
2022-08-27T00:50:29.187Z,951.08
2022-08-27T00:51:29.180Z,951.07
2022-08-27T00:52:29.177Z,951.06
2022-08-27T00:53:29.171Z,951.07
2022-08-27T00:54:29.166Z,951.01
2022-08-27T00:55:29.161Z,950.99
2022-08-27T00:56:29.159Z,950.99
2022-08-27T00:57:29.151Z,951
2022-08-27T00:58:29.146Z,950.99
2022-08-27T00:59:29.153Z,950.99
2022-08-27T01:00:29.137Z,951
2022-08-27T01:01:29.159Z,950.96
2022-08-27T01:02:29.175Z,950.97
2022-08-27T01:03:29.120Z,950.93
2022-08-27T01:04:29.117Z,950.97
2022-08-27T01:05:29.109Z,950.98
2022-08-27T01:06:29.107Z,950.91
2022-08-27T01:07:29.103Z,950.94
2022-08-27T01:08:29.100Z,950.91
2022-08-27T01:09:29.091Z,950.92
2022-08-27T01:10:29.087Z,950.92
2022-08-27T01:11:29.081Z,950.91
2022-08-27T01:12:29.075Z,950.89
2022-08-27T01:13:40.722Z,950.93
2022-08-27T01:14:29.066Z,950.92
2022-08-27T01:15:29.063Z,950.93
2022-08-27T01:16:29.091Z,950.89
2022-08-27T01:17:29.063Z,950.9
2022-08-27T01:18:29.048Z,950.88
2022-08-27T01:19:29.045Z,950.92
2022-08-27T01:20:29.035Z,950.87
2022-08-27T01:21:29.032Z,950.87
2022-08-27T01:22:29.027Z,950.88
2022-08-27T01:23:29.026Z,950.87
2022-08-27T01:24:29.016Z,950.86
2022-08-27T01:25:29.012Z,950.87
2022-08-27T01:26:29.004Z,950.89
2022-08-27T01:27:29.002Z,950.91
2022-08-27T01:28:29.258Z,950.94
2022-08-27T01:29:28.995Z,950.92
2022-08-27T01:30:28.987Z,950.92
2022-08-27T01:31:29.021Z,950.94
2022-08-27T01:32:28.975Z,950.96
2022-08-27T01:33:28.975Z,950.96
2022-08-27T01:34:28.964Z,950.99
2022-08-27T01:35:28.962Z,950.99
2022-08-27T01:36:29.206Z,950.97
2022-08-27T01:37:28.951Z,950.99
2022-08-27T01:38:30.517Z,951.02
2022-08-27T01:39:28.943Z,951
2022-08-27T01:40:28.966Z,951.05
2022-08-27T01:41:28.931Z,951.08
2022-08-27T01:42:28.924Z,951.05
2022-08-27T01:43:28.922Z,951.03
2022-08-27T01:44:28.915Z,951.07
2022-08-27T01:45:28.913Z,951.08
2022-08-27T01:46:28.954Z,951.04
2022-08-27T01:47:30.291Z,951.03
2022-08-27T01:48:28.896Z,951.04
2022-08-27T01:49:28.894Z,951.02
2022-08-27T01:50:28.884Z,951.03
2022-08-27T01:51:28.882Z,951.02
2022-08-27T01:52:28.874Z,951.01
2022-08-27T01:53:28.923Z,951.02
2022-08-27T01:54:28.865Z,951.01
2022-08-27T01:55:28.865Z,951.01
2022-08-27T01:56:28.855Z,951.02
2022-08-27T01:57:28.853Z,951.03
2022-08-27T01:58:28.849Z,951.02
2022-08-27T01:59:39.255Z,951.04
2022-08-27T02:00:28.835Z,951.04
2022-08-27T02:01:28.903Z,951.04
2022-08-27T02:02:28.913Z,951.06
2022-08-27T02:03:28.821Z,951.04
2022-08-27T02:04:28.820Z,951.07
2022-08-27T02:05:28.812Z,951.03
2022-08-27T02:06:28.810Z,950.95
2022-08-27T02:07:28.802Z,950.96
2022-08-27T02:08:28.800Z,950.93
2022-08-27T02:09:28.792Z,950.9
2022-08-27T02:10:28.789Z,950.91
2022-08-27T02:11:28.783Z,950.87
2022-08-27T02:12:28.779Z,950.9
2022-08-27T02:13:28.775Z,950.87
2022-08-27T02:14:28.771Z,950.86
2022-08-27T02:15:28.765Z,950.87
2022-08-27T02:16:28.790Z,950.86
2022-08-27T02:17:28.754Z,950.86
2022-08-27T02:18:28.750Z,950.86
2022-08-27T02:19:28.746Z,950.9
2022-08-27T02:20:29.381Z,950.86
2022-08-27T02:21:28.734Z,950.87
2022-08-27T02:22:28.732Z,950.87
2022-08-27T02:23:28.725Z,950.87
2022-08-27T02:24:28.722Z,950.87
2022-08-27T02:25:28.715Z,950.88
2022-08-27T02:26:28.711Z,950.86
2022-08-27T02:27:28.705Z,950.83
2022-08-27T02:28:28.704Z,950.85
2022-08-27T02:29:28.696Z,950.87
2022-08-27T02:30:28.691Z,950.85
2022-08-27T02:31:28.730Z,950.87
2022-08-27T02:32:31.688Z,950.88
2022-08-27T02:33:28.675Z,950.89
2022-08-27T02:34:28.673Z,950.87
2022-08-27T02:35:28.669Z,950.91
2022-08-27T02:36:28.661Z,950.89
2022-08-27T02:37:28.655Z,950.88
2022-08-27T02:38:28.655Z,950.89
2022-08-27T02:39:28.646Z,950.87
2022-08-27T02:40:28.714Z,950.89
2022-08-27T02:41:28.636Z,950.89
2022-08-27T02:42:28.634Z,950.91
2022-08-27T02:43:28.627Z,950.88
2022-08-27T02:44:28.627Z,950.88
2022-08-27T02:45:28.617Z,950.91
2022-08-27T02:46:28.654Z,950.88
2022-08-27T02:47:28.607Z,950.87
2022-08-27T02:48:28.606Z,950.9
2022-08-27T02:49:28.603Z,950.86
2022-08-27T02:50:28.594Z,950.89
2022-08-27T02:51:28.589Z,950.91
2022-08-27T02:52:28.589Z,950.89
2022-08-27T02:53:28.582Z,950.89
2022-08-27T02:54:28.577Z,950.91
2022-08-27T02:55:28.571Z,950.9
2022-08-27T02:56:28.566Z,950.94
2022-08-27T02:57:28.564Z,950.94
2022-08-27T02:58:28.556Z,950.92
2022-08-27T02:59:28.552Z,950.91
2022-08-27T03:00:28.546Z,950.95
2022-08-27T03:01:28.557Z,950.91
2022-08-27T03:02:28.619Z,950.94
2022-08-27T03:03:28.535Z,950.88
2022-08-27T03:04:28.529Z,950.92
2022-08-27T03:05:28.523Z,950.9
2022-08-27T03:06:28.516Z,950.93
2022-08-27T03:07:28.513Z,950.88
2022-08-27T03:08:28.506Z,950.91
2022-08-27T03:09:28.504Z,950.93
2022-08-27T03:10:28.496Z,950.9
2022-08-27T03:11:28.492Z,950.89
2022-08-27T03:12:28.488Z,950.86
2022-08-27T03:13:28.484Z,950.87
2022-08-27T03:14:28.477Z,950.9
2022-08-27T03:15:28.474Z,950.91
2022-08-27T03:16:28.490Z,950.9
2022-08-27T03:17:28.463Z,950.93
2022-08-27T03:18:28.457Z,950.92
2022-08-27T03:19:28.454Z,950.91
2022-08-27T03:20:28.446Z,950.91
2022-08-27T03:21:28.446Z,950.93
2022-08-27T03:22:28.439Z,950.93
2022-08-27T03:23:28.433Z,950.93
2022-08-27T03:24:28.427Z,950.92
2022-08-27T03:25:28.426Z,950.93
2022-08-27T03:26:28.417Z,950.89
2022-08-27T03:27:28.415Z,950.89
2022-08-27T03:28:28.408Z,950.9
2022-08-27T03:29:28.403Z,950.91
2022-08-27T03:30:28.396Z,950.89
2022-08-27T03:31:28.444Z,950.9
2022-08-27T03:32:28.390Z,950.91
2022-08-27T03:33:28.384Z,950.92
2022-08-27T03:50:32.167Z,950.96
2022-08-27T03:51:32.160Z,950.94
2022-08-27T03:52:32.157Z,950.95
2022-08-27T03:53:32.143Z,950.94
2022-08-27T03:54:32.134Z,950.91
2022-08-27T03:55:32.125Z,950.95
2022-08-27T03:56:32.120Z,950.95
2022-08-27T03:57:32.111Z,950.95
2022-08-27T03:58:32.105Z,950.92
2022-08-27T03:59:32.098Z,950.91
2022-08-27T04:00:32.087Z,950.85
2022-08-27T04:01:32.095Z,950.88
2022-08-27T04:02:32.117Z,950.92
2022-08-27T04:03:32.071Z,950.86
2022-08-27T04:04:32.063Z,950.86
2022-08-27T04:05:32.057Z,950.88
2022-08-27T04:06:32.051Z,950.85
2022-08-27T04:07:32.043Z,950.88
2022-08-27T04:08:32.035Z,950.83
2022-08-27T04:09:32.030Z,950.87
2022-08-27T04:10:32.794Z,950.86
2022-08-27T04:11:32.019Z,950.91
2022-08-27T04:12:32.011Z,950.85
2022-08-27T04:13:32.006Z,950.85
2022-08-27T04:14:31.999Z,950.84
2022-08-27T04:15:31.994Z,950.83
2022-08-27T04:16:32.033Z,950.88
2022-08-27T04:17:31.982Z,950.84
2022-08-27T04:18:31.976Z,950.83
2022-08-27T04:19:31.971Z,950.83
2022-08-27T04:20:35.312Z,950.78
2022-08-27T04:21:31.958Z,950.79
2022-08-27T04:22:31.952Z,950.81
2022-08-27T04:23:31.948Z,950.75
2022-08-27T04:24:31.942Z,950.78
2022-08-27T04:25:31.935Z,950.78
2022-08-27T04:26:31.930Z,950.73
2022-08-27T04:27:31.922Z,950.72
2022-08-27T04:28:35.184Z,950.74
2022-08-27T04:29:31.914Z,950.7
2022-08-27T04:30:31.908Z,950.74
2022-08-27T04:31:31.962Z,950.73
2022-08-27T04:32:31.893Z,950.74
2022-08-27T04:33:31.888Z,950.75
2022-08-27T04:34:31.882Z,950.8
2022-08-27T04:35:31.878Z,950.82
2022-08-27T04:36:31.870Z,950.84
2022-08-27T04:37:31.866Z,950.87
2022-08-27T04:38:31.859Z,950.91
2022-08-27T04:39:31.857Z,950.91
2022-08-27T04:40:31.923Z,950.88
2022-08-27T04:41:31.841Z,950.88
2022-08-27T04:42:31.839Z,950.89
2022-08-27T04:43:31.831Z,950.94
2022-08-27T04:44:31.825Z,950.95
2022-08-27T04:45:31.821Z,950.99
2022-08-27T04:46:31.878Z,950.99
2022-08-27T04:47:31.808Z,951.02
2022-08-27T04:48:31.803Z,951
2022-08-27T04:49:31.996Z,951.05
2022-08-27T04:50:31.793Z,951.04
2022-08-27T04:51:31.786Z,951.03
2022-08-27T04:52:31.784Z,951.02
2022-08-27T04:53:31.779Z,951.03
2022-08-27T04:54:32.566Z,951.03
2022-08-27T04:55:31.764Z,951.04
2022-08-27T04:56:31.763Z,951.03
2022-08-27T04:57:31.754Z,951.04
2022-08-27T04:58:31.753Z,951.02
2022-08-27T04:59:31.755Z,951.07
2022-08-27T05:00:31.738Z,951.06
2022-08-27T05:01:31.800Z,951.05
2022-08-27T05:02:31.730Z,951.04
2022-08-27T05:03:31.723Z,951.05
2022-08-27T05:04:31.719Z,951.04
2022-08-27T05:05:31.803Z,951.04
2022-08-27T05:06:31.707Z,951.06
2022-08-27T05:07:31.700Z,951.04
2022-08-27T05:08:31.697Z,951.05
2022-08-27T05:09:31.728Z,951.04
2022-08-27T05:10:31.685Z,950.99
2022-08-27T05:11:31.679Z,951.05
2022-08-27T05:12:31.678Z,951.01
2022-08-27T05:13:31.673Z,951
2022-08-27T05:14:31.665Z,951.05
2022-08-27T05:15:31.690Z,951.04
2022-08-27T05:16:31.658Z,951.05
2022-08-27T05:17:31.648Z,951.02
2022-08-27T05:18:34.202Z,951.02
2022-08-27T05:19:31.639Z,951
2022-08-27T05:20:31.634Z,951.01
2022-08-27T05:21:31.630Z,951.02
2022-08-27T05:22:31.625Z,950.99
2022-08-27T05:23:31.620Z,951.03
2022-08-27T05:24:31.614Z,951.01
2022-08-27T05:25:31.608Z,950.98
2022-08-27T05:26:31.605Z,951
2022-08-27T05:27:31.598Z,951
2022-08-27T05:28:31.595Z,950.97
2022-08-27T05:29:31.591Z,950.93
2022-08-27T05:30:31.586Z,950.95
2022-08-27T05:31:31.639Z,950.92
2022-08-27T05:32:31.573Z,950.93
2022-08-27T05:33:31.570Z,950.9
2022-08-27T05:34:31.663Z,950.92
2022-08-27T05:35:31.562Z,950.94
2022-08-27T05:36:31.554Z,950.94
2022-08-27T05:37:31.550Z,950.96
2022-08-27T05:38:31.546Z,950.9
2022-08-27T05:39:31.542Z,950.95
2022-08-27T05:40:31.579Z,950.95
2022-08-27T05:41:34.012Z,950.94
2022-08-27T05:42:31.524Z,950.96
2022-08-27T05:43:31.519Z,950.97
2022-08-27T05:44:46.810Z,950.98
2022-08-27T05:45:31.510Z,950.93
2022-08-27T05:46:31.577Z,950.96
2022-08-27T05:47:31.499Z,950.95
2022-08-27T05:48:31.498Z,950.97
2022-08-27T05:49:31.500Z,950.97
2022-08-27T05:50:31.485Z,950.96
2022-08-27T05:51:31.482Z,950.96
2022-08-27T05:52:31.472Z,950.98
2022-08-27T05:53:31.471Z,950.96
2022-08-27T05:54:31.466Z,950.92
2022-08-27T05:55:31.460Z,950.94
2022-08-27T05:56:31.454Z,950.93
2022-08-27T05:57:31.450Z,950.94
2022-08-27T05:58:31.446Z,950.98
2022-08-27T05:59:31.440Z,951
2022-08-27T06:00:31.433Z,950.98
2022-08-27T06:01:31.429Z,951.03
2022-08-27T06:02:31.463Z,950.99
2022-08-27T06:03:31.421Z,951.01
2022-08-27T06:04:31.413Z,951.03
2022-08-27T06:05:31.480Z,951.03
2022-08-27T06:06:31.405Z,951.05
2022-08-27T06:07:31.402Z,951.02
2022-08-27T06:08:31.393Z,950.99
2022-08-27T06:09:31.390Z,951.05
2022-08-27T06:10:31.385Z,951.04
2022-08-27T06:11:31.380Z,951.02
2022-08-27T06:12:31.374Z,951.03
2022-08-27T06:13:31.370Z,951.02
2022-08-27T06:14:31.365Z,951
2022-08-27T06:15:31.376Z,951.01
2022-08-27T06:16:31.356Z,950.99
2022-08-27T06:17:31.350Z,951.02
2022-08-27T06:18:31.346Z,951.05
2022-08-27T06:19:31.342Z,951.04
2022-08-27T06:20:31.334Z,951.06
2022-08-27T06:21:31.333Z,951.09
2022-08-27T06:22:31.327Z,951.04
2022-08-27T06:23:31.321Z,951.04
2022-08-27T06:24:31.317Z,951.04
2022-08-27T06:25:31.311Z,951.05
2022-08-27T06:26:31.307Z,951.06
2022-08-27T06:27:31.300Z,951.08
2022-08-27T06:28:31.296Z,951.06
2022-08-27T06:29:31.293Z,951.07
2022-08-27T06:30:31.287Z,951.06
2022-08-27T06:31:31.350Z,951.07
2022-08-27T06:32:31.277Z,951.02
2022-08-27T06:33:31.270Z,951.11
2022-08-27T06:34:31.267Z,951.16
2022-08-27T06:35:33.988Z,951.11
2022-08-27T06:36:31.255Z,951.11
2022-08-27T06:37:31.249Z,951.11
2022-08-27T06:38:31.245Z,951.15
2022-08-27T06:39:31.239Z,951.1
2022-08-27T06:40:31.278Z,951.16
2022-08-27T06:41:31.228Z,951.13
2022-08-27T06:42:31.224Z,951.1
2022-08-27T06:43:31.219Z,951.1
2022-08-27T06:44:31.213Z,951.12
2022-08-27T06:45:31.207Z,951.11
2022-08-27T06:46:31.257Z,951.16
2022-08-27T06:47:31.197Z,951.11
2022-08-27T06:48:31.196Z,951.13
2022-08-27T06:49:31.185Z,951.11
2022-08-27T06:50:31.182Z,951.14
2022-08-27T06:51:31.180Z,951.08
2022-08-27T06:52:31.174Z,951.11
2022-08-27T06:53:31.165Z,951.09
2022-08-27T06:54:31.162Z,951.1
2022-08-27T06:55:34.202Z,951.13
2022-08-27T06:56:31.152Z,951.13
2022-08-27T06:57:31.143Z,951.15
2022-08-27T06:58:31.141Z,951.16
2022-08-27T06:59:31.136Z,951.15
2022-08-27T07:00:31.131Z,951.16
2022-08-27T07:01:31.191Z,951.18
2022-08-27T07:02:31.151Z,951.22
2022-08-27T07:03:31.115Z,951.2
2022-08-27T07:04:32.505Z,951.23
2022-08-27T07:05:31.105Z,951.19
2022-08-27T07:06:31.101Z,951.22
2022-08-27T07:07:35.388Z,951.18
2022-08-27T07:08:31.090Z,951.18
2022-08-27T07:09:31.083Z,951.2
2022-08-27T07:10:31.079Z,951.24
2022-08-27T07:11:31.076Z,951.25
2022-08-27T07:12:31.069Z,951.28
2022-08-27T07:13:31.063Z,951.25
2022-08-27T07:14:35.580Z,951.29
2022-08-27T07:15:31.325Z,951.26
2022-08-27T07:16:31.046Z,951.28
2022-08-27T07:17:31.044Z,951.28
2022-08-27T07:18:31.040Z,951.32
2022-08-27T07:19:31.036Z,951.31
2022-08-27T07:20:31.027Z,951.31
2022-08-27T07:21:31.025Z,951.33
2022-08-27T07:22:31.017Z,951.34
2022-08-27T07:23:31.014Z,951.32
2022-08-27T07:24:31.012Z,951.32
2022-08-27T07:25:31.003Z,951.33
2022-08-27T07:26:30.997Z,951.38
2022-08-27T07:27:30.993Z,951.39
2022-08-27T07:28:30.986Z,951.38
2022-08-27T07:29:32.326Z,951.39
2022-08-27T07:30:31.008Z,951.38
2022-08-27T07:31:30.973Z,951.4
2022-08-27T07:32:31.344Z,951.42
2022-08-27T07:33:30.964Z,951.46
2022-08-27T07:34:30.956Z,951.45
2022-08-27T07:35:30.953Z,951.44
2022-08-27T07:36:30.947Z,951.45
2022-08-27T07:37:35.092Z,951.5
2022-08-27T07:38:30.936Z,951.47
2022-08-27T07:39:30.932Z,951.48
2022-08-27T07:40:30.961Z,951.47
2022-08-27T07:41:31.778Z,951.46
2022-08-27T07:42:30.914Z,951.48
2022-08-27T07:43:30.912Z,951.5
2022-08-27T07:44:30.979Z,951.52
2022-08-27T07:45:30.900Z,951.52
2022-08-27T07:46:30.920Z,951.53
2022-08-27T07:47:30.889Z,951.56
2022-08-27T07:48:30.882Z,951.55
2022-08-27T07:49:30.882Z,951.57
2022-08-27T07:50:30.873Z,951.59
2022-08-27T07:51:30.870Z,951.58
2022-08-27T07:52:30.864Z,951.57
2022-08-27T07:53:30.859Z,951.57
2022-08-27T07:54:30.853Z,951.57
2022-08-27T07:55:30.851Z,951.62
2022-08-27T07:56:30.842Z,951.6
2022-08-27T07:57:30.841Z,951.61
2022-08-27T07:58:30.832Z,951.66
2022-08-27T07:59:30.828Z,951.62
2022-08-27T08:00:30.972Z,951.63
2022-08-27T08:01:30.869Z,951.66
2022-08-27T08:02:30.893Z,951.66
2022-08-27T08:03:30.807Z,951.68
2022-08-27T08:04:30.806Z,951.66
2022-08-27T08:05:30.797Z,951.71
2022-08-27T08:06:30.792Z,951.7
2022-08-27T08:07:30.786Z,951.72
2022-08-27T08:08:30.784Z,951.72
2022-08-27T08:09:30.774Z,951.74
2022-08-27T08:10:34.971Z,951.72
2022-08-27T08:11:30.766Z,951.73
2022-08-27T08:12:30.764Z,951.77
2022-08-27T08:13:30.754Z,951.77
2022-08-27T08:14:30.752Z,951.83
2022-08-27T08:15:30.745Z,951.83
2022-08-27T08:16:31.795Z,951.86
2022-08-27T08:17:30.735Z,951.89
2022-08-27T08:18:30.733Z,951.83
2022-08-27T08:19:30.726Z,951.87
2022-08-27T08:20:47.572Z,951.86
2022-08-27T08:21:30.713Z,951.84
2022-08-27T08:22:30.711Z,951.88
2022-08-27T08:23:30.756Z,951.88
2022-08-27T08:24:30.700Z,951.85
2022-08-27T08:25:34.575Z,951.84
2022-08-27T08:26:30.692Z,951.87
2022-08-27T08:27:30.682Z,951.91
2022-08-27T08:28:30.679Z,951.9
2022-08-27T08:29:30.674Z,951.87
2022-08-27T08:30:31.286Z,951.87
2022-08-27T08:31:30.661Z,951.88
2022-08-27T08:32:30.659Z,951.91
2022-08-27T08:33:30.651Z,951.92
2022-08-27T08:34:30.647Z,951.9
2022-08-27T08:35:33.677Z,951.86
2022-08-27T08:36:30.638Z,951.88
2022-08-27T08:37:30.631Z,951.91
2022-08-27T08:38:30.628Z,951.9
2022-08-27T08:39:30.620Z,951.85
2022-08-27T08:40:30.708Z,951.93
2022-08-27T08:41:31.057Z,951.9
2022-08-27T08:42:30.607Z,951.91
2022-08-27T08:43:30.601Z,951.95
2022-08-27T08:44:30.596Z,951.91
2022-08-27T08:45:30.589Z,951.95
2022-08-27T08:46:30.638Z,951.95
2022-08-27T08:47:30.580Z,951.92
2022-08-27T08:48:30.574Z,951.94
2022-08-27T08:49:30.568Z,951.96
2022-08-27T08:50:30.563Z,951.95
2022-08-27T08:51:30.556Z,951.93
2022-08-27T08:52:32.009Z,951.92
2022-08-27T08:53:30.545Z,951.95
2022-08-27T08:54:30.541Z,951.97
2022-08-27T08:55:30.534Z,951.93
2022-08-27T08:56:30.533Z,951.94
2022-08-27T08:57:30.528Z,951.94
2022-08-27T08:58:30.521Z,951.91
2022-08-27T08:59:30.514Z,951.91
2022-08-27T09:00:30.508Z,951.93
2022-08-27T09:01:30.718Z,951.91
2022-08-27T09:02:30.497Z,951.89
2022-08-27T09:03:30.539Z,951.94
2022-08-27T09:04:30.485Z,951.96
2022-08-27T09:05:30.481Z,951.91
2022-08-27T09:06:30.477Z,951.96
2022-08-27T09:07:30.473Z,951.93
2022-08-27T09:08:35.549Z,951.97
2022-08-27T09:09:30.460Z,951.95
2022-08-27T09:10:30.453Z,951.98
2022-08-27T09:11:30.448Z,951.95
2022-08-27T09:12:30.443Z,951.99
2022-08-27T09:13:30.438Z,952.02
2022-08-27T09:14:30.431Z,951.97
2022-08-27T09:15:30.432Z,952.06
2022-08-27T09:16:30.490Z,952.04
2022-08-27T09:17:30.418Z,952.07
2022-08-27T09:18:30.408Z,952.05
2022-08-27T09:19:30.408Z,952.04
2022-08-27T09:20:30.399Z,952.07
2022-08-27T09:21:30.396Z,952.05
2022-08-27T09:22:30.390Z,952.07
2022-08-27T09:23:30.386Z,952.1
2022-08-27T09:24:30.378Z,952.07
2022-08-27T09:25:30.374Z,952.08
2022-08-27T09:26:30.367Z,952.04
2022-08-27T09:27:30.364Z,952.04
2022-08-27T09:28:30.362Z,952.02
2022-08-27T09:29:30.354Z,952.04
2022-08-27T09:30:30.987Z,952.04
2022-08-27T09:31:30.344Z,952.01
2022-08-27T09:32:30.336Z,952.04
2022-08-27T09:33:40.940Z,952.05
2022-08-27T09:34:30.324Z,952.06
2022-08-27T09:35:30.326Z,952.05
2022-08-27T09:36:30.317Z,952.07
2022-08-27T09:37:34.373Z,952.05
2022-08-27T09:38:30.304Z,952.09
2022-08-27T09:39:30.303Z,952.05
2022-08-27T09:40:30.325Z,952.05
2022-08-27T09:41:30.289Z,952.06
2022-08-27T09:42:30.287Z,952.08
2022-08-27T09:43:30.280Z,952.05
2022-08-27T09:44:30.273Z,952.09
2022-08-27T09:45:30.331Z,952.04
2022-08-27T09:46:30.265Z,952.05
2022-08-27T09:47:30.259Z,952.04
2022-08-27T09:48:30.252Z,952.06
2022-08-27T09:49:30.247Z,952.03
2022-08-27T09:50:30.245Z,952.05
2022-08-27T09:51:30.238Z,952.07
2022-08-27T09:52:30.239Z,952.06
2022-08-27T09:53:30.227Z,952.06
2022-08-27T09:54:30.223Z,952.06
2022-08-27T09:55:30.215Z,952.06
2022-08-27T09:56:30.212Z,952.01
2022-08-27T09:57:30.806Z,952.07
2022-08-27T09:58:30.203Z,952.08
2022-08-27T09:59:30.195Z,952.06
2022-08-27T10:00:30.195Z,952.02
2022-08-27T10:01:30.226Z,952.05
2022-08-27T10:02:30.183Z,952.03
2022-08-27T10:03:33.344Z,952.06
2022-08-27T10:04:30.271Z,952.02
2022-08-27T10:05:30.165Z,952.02
2022-08-27T10:06:30.170Z,952.05
2022-08-27T10:07:30.158Z,952.08
2022-08-27T10:08:30.154Z,952.04
2022-08-27T10:09:30.149Z,952.04
2022-08-27T10:10:30.152Z,952.03
2022-08-27T10:11:30.140Z,952.02
2022-08-27T10:12:30.135Z,952.03
2022-08-27T10:13:30.126Z,952
2022-08-27T10:14:30.125Z,952
2022-08-27T10:15:30.120Z,952.02
2022-08-27T10:16:30.184Z,951.94
2022-08-27T10:17:30.111Z,952.01
2022-08-27T10:18:30.105Z,951.98
2022-08-27T10:19:30.099Z,952.02
2022-08-27T10:20:30.732Z,952.01
2022-08-27T10:21:30.092Z,951.97
2022-08-27T10:22:30.085Z,951.99
2022-08-27T10:23:30.079Z,951.97
2022-08-27T10:24:30.078Z,952
2022-08-27T10:25:30.070Z,951.95
2022-08-27T10:26:33.661Z,951.98
2022-08-27T10:27:30.060Z,951.98
2022-08-27T10:28:30.057Z,951.97
2022-08-27T10:29:30.052Z,951.97
2022-08-27T10:30:30.048Z,951.97
2022-08-27T10:31:30.099Z,951.95
2022-08-27T10:32:30.039Z,951.98
2022-08-27T10:33:30.034Z,951.98
2022-08-27T10:34:30.029Z,951.99
2022-08-27T10:35:30.024Z,951.96
2022-08-27T10:36:30.023Z,951.97
2022-08-27T10:37:31.113Z,951.98
2022-08-27T10:38:30.014Z,951.98
2022-08-27T10:39:30.008Z,951.99
2022-08-27T10:40:30.043Z,952
2022-08-27T10:41:30.000Z,951.96
2022-08-27T10:42:29.994Z,951.95
2022-08-27T10:43:29.991Z,951.93
2022-08-27T10:44:29.988Z,951.98
2022-08-27T10:45:31.184Z,952
2022-08-27T10:46:30.044Z,951.99
2022-08-27T10:47:29.978Z,951.97
2022-08-27T10:48:29.968Z,951.98
2022-08-27T10:49:29.966Z,951.99
2022-08-27T10:50:29.961Z,952.03
2022-08-27T10:51:29.958Z,952.01
2022-08-27T10:52:29.952Z,952
2022-08-27T10:53:29.949Z,951.97
2022-08-27T10:54:29.943Z,951.98
2022-08-27T10:55:29.946Z,951.98
2022-08-27T10:56:29.936Z,952
2022-08-27T10:57:45.700Z,951.98
2022-08-27T10:58:29.930Z,952.01
2022-08-27T10:59:29.927Z,951.98
2022-08-27T11:00:29.920Z,952.02
2022-08-27T11:01:30.016Z,952
2022-08-27T11:02:29.963Z,952
2022-08-27T11:03:30.138Z,952.03
2022-08-27T11:04:29.905Z,952.01
2022-08-27T11:05:29.902Z,951.95
2022-08-27T11:06:29.898Z,951.98
2022-08-27T11:07:29.897Z,951.97
2022-08-27T11:08:29.890Z,951.97
2022-08-27T11:09:29.891Z,951.98
2022-08-27T11:10:29.881Z,952.01
2022-08-27T11:12:10.211Z,952.01
2022-08-27T11:12:29.874Z,952.03
2022-08-27T11:13:29.872Z,952.03
2022-08-27T11:14:29.869Z,952
2022-08-27T11:15:29.863Z,952.04
2022-08-27T11:16:29.874Z,952.04
2022-08-27T11:17:32.163Z,952.03
2022-08-27T11:18:29.851Z,952.04
2022-08-27T11:19:29.849Z,952.04
2022-08-27T11:20:29.843Z,952.03
2022-08-27T11:21:29.842Z,952.04
2022-08-27T11:22:29.840Z,952.04
2022-08-27T11:23:29.835Z,952.05
2022-08-27T11:24:33.156Z,952.02
2022-08-27T11:25:29.827Z,952.05
2022-08-27T11:26:29.822Z,952.02
2022-08-27T11:27:29.920Z,952.02
2022-08-27T11:28:30.367Z,952.06
2022-08-27T11:29:29.813Z,952.05
2022-08-27T11:30:29.808Z,952.04
2022-08-27T11:31:29.835Z,952.06
2022-08-27T11:32:29.803Z,952.04
2022-08-27T11:33:29.801Z,952.03
2022-08-27T11:34:29.796Z,952.05
2022-08-27T11:35:29.832Z,952.04
2022-08-27T11:36:29.791Z,952
2022-08-27T11:37:29.786Z,952
2022-08-27T11:38:29.785Z,952.03
2022-08-27T11:39:29.781Z,952.01
2022-08-27T11:40:29.907Z,952.06
2022-08-27T11:41:29.775Z,952
2022-08-27T11:42:29.773Z,952.05
2022-08-27T11:43:29.768Z,952.03
2022-08-27T11:44:29.769Z,952.09
2022-08-27T11:45:29.772Z,952.03
2022-08-27T11:46:29.815Z,952.06
2022-08-27T11:47:29.759Z,952.04
2022-08-27T11:48:29.755Z,952.05
2022-08-27T11:49:29.753Z,952.03
2022-08-27T11:50:29.751Z,952.05
2022-08-27T11:51:29.744Z,952.08
2022-08-27T11:52:29.748Z,952.07
2022-08-27T11:53:29.740Z,952.07
2022-08-27T11:54:29.737Z,952.09
2022-08-27T11:55:29.732Z,952.09
2022-08-27T11:56:29.729Z,952.15
2022-08-27T11:57:29.725Z,952.1
2022-08-27T11:58:29.726Z,952.16
2022-08-27T11:59:29.718Z,952.11
2022-08-27T12:00:29.767Z,952.14
2022-08-27T12:01:29.719Z,952.14
2022-08-27T12:02:29.711Z,952.16
2022-08-27T12:03:29.749Z,952.13
2022-08-27T12:04:29.721Z,952.12
2022-08-27T12:05:29.701Z,952.14
2022-08-27T12:06:29.699Z,952.13
2022-08-27T12:07:29.705Z,952.16
2022-08-27T12:08:29.695Z,952.2
2022-08-27T12:09:29.691Z,952.21
2022-08-27T12:10:29.688Z,952.17
2022-08-27T12:11:29.685Z,952.16
2022-08-27T12:12:29.686Z,952.17
2022-08-27T12:13:29.680Z,952.16
2022-08-27T12:14:29.680Z,952.16
2022-08-27T12:15:32.389Z,952.13
2022-08-27T12:16:29.908Z,952.13
2022-08-27T12:17:29.670Z,952.11
2022-08-27T12:18:29.668Z,952.12
2022-08-27T12:19:29.664Z,952.16
2022-08-27T12:20:29.664Z,952.13
2022-08-27T12:21:29.661Z,952.11
2022-08-27T12:22:29.657Z,952.12
2022-08-27T12:23:29.660Z,952.11
2022-08-27T12:24:29.655Z,952.14
2022-08-27T12:25:29.653Z,952.1
2022-08-27T12:26:29.652Z,952.09
2022-08-27T12:27:29.649Z,952.08
2022-08-27T12:28:29.650Z,952.09
2022-08-27T12:29:29.647Z,952.08
2022-08-27T12:30:29.643Z,952.08
2022-08-27T12:31:29.685Z,952.1
2022-08-27T12:32:29.639Z,952.09
2022-08-27T12:33:29.639Z,952.05
2022-08-27T12:34:29.635Z,952.08
2022-08-27T12:35:29.636Z,952.06
2022-08-27T12:36:29.633Z,951.99
2022-08-27T12:37:29.630Z,952.01
2022-08-27T12:38:29.628Z,951.97
2022-08-27T12:39:29.627Z,951.98
2022-08-27T12:40:29.713Z,951.95
2022-08-27T12:41:29.625Z,952.02
2022-08-27T12:42:29.623Z,951.99
2022-08-27T12:43:29.622Z,951.96
2022-08-27T12:44:29.618Z,951.96
2022-08-27T12:45:29.618Z,951.92
2022-08-27T12:46:29.767Z,951.93
2022-08-27T12:47:29.613Z,951.88
2022-08-27T12:48:29.610Z,951.85
2022-08-27T12:49:36.807Z,951.89